| time (UTC) | temp F | wind direction | speed MPH | gust MPH | rain 1hr in | rain 24hr in | rain mn in | humidity % | barometer mb |
| 20260901231035 | 55 | 213 | 0.0 | 0.0 | 0.00 | 0.00 | 0.00 | 100 | 1022.4 |
| 20260901230530 | 55 | 213 | 0.0 | 0.0 | 0.00 | 0.00 | 0.00 | 100 | 1022.3 |
| 20260901230040 | 55 | 213 | 0.0 | 0.0 | 0.00 | 0.00 | 0.00 | 100 | 1022.3 |
| 20260901225538 | 56 | 213 | 0.0 | 0.0 | 0.00 | 0.00 | 0.00 | 100 | 1022.4 |
| 20260901225031 | 56 | 213 | 0.0 | 0.0 | 0.00 | 0.00 | 0.00 | 100 | 1022.4 |
| 20260901224539 | 56 | 213 | 1.0 | 4.0 | 0.00 | 0.00 | 0.00 | 100 | 1022.4 |
| 20260901224038 | 56 | 213 | 0.0 | 0.0 | 0.00 | 0.00 | 0.00 | 100 | 1022.4 |
| 20260901223531 | 56 | 213 | 0.0 | 0.0 | 0.00 | 0.00 | 0.00 | 100 | 1022.5 |
| 20260901223039 | 56 | 213 | 0.0 | 0.0 | 0.00 | 0.00 | 0.00 | 100 | 1022.5 |
| 20260901222539 | 56 | 213 | 0.0 | 0.0 | 0.00 | 0.00 | 0.00 | 100 | 1022.5 |
| 20260901222039 | 56 | 213 | 2.0 | 4.0 | 0.00 | 0.00 | 0.00 | 100 | 1022.5 |
| 20260901221532 | 56 | 213 | 2.0 | 4.0 | 0.00 | 0.00 | 0.00 | 100 | 1022.5 |
| 20260901221039 | 56 | 213 | 0.0 | 0.0 | 0.00 | 0.00 | 0.00 | 100 | 1022.6 |
| 20260901220529 | 56 | 213 | 0.0 | 0.0 | 0.00 | 0.00 | 0.00 | 100 | 1022.6 |
| 20260901220033 | 56 | 213 | 0.0 | 2.0 | 0.00 | 0.00 | 0.00 | 100 | 1022.6 |
| 20260901215534 | 57 | 213 | 2.0 | 4.0 | 0.00 | 0.00 | 0.00 | 99 | 1022.5 |
| 20260901215035 | 57 | 213 | 0.0 | 2.0 | 0.00 | 0.00 | 0.00 | 99 | 1022.4 |
| 20260901214535 | 57 | 213 | 2.0 | 4.0 | 0.00 | 0.00 | 0.00 | 98 | 1022.5 |
| 20260901214035 | 57 | 213 | 0.0 | 2.0 | 0.00 | 0.00 | 0.00 | 98 | 1022.5 |
| 20260901213535 | 57 | 213 | 0.0 | 0.0 | 0.00 | 0.00 | 0.00 | 98 | 1022.5 |
| 20260901213043 | 58 | 213 | 2.0 | 4.0 | 0.00 | 0.00 | 0.00 | 97 | 1022.6 |
| 20260901212535 | 58 | 213 | 0.0 | 0.0 | 0.00 | 0.00 | 0.00 | 97 | 1022.5 |
| 20260901212035 | 58 | 213 | 0.0 | 0.0 | 0.00 | 0.00 | 0.00 | 96 | 1022.6 |
| 20260901211535 | 58 | 213 | 0.0 | 0.0 | 0.00 | 0.00 | 0.00 | 96 | 1022.6 |
| 20260901211039 | 59 | 213 | 2.0 | 6.0 | 0.00 | 0.00 | 0.00 | 95 | 1022.5 |
| 20260901210535 | 59 | 213 | 2.0 | 6.0 | 0.00 | 0.00 | 0.00 | 95 | 1022.5 |
| 20260901210035 | 59 | 210 | 4.0 | 6.0 | 0.00 | 0.00 | 0.00 | 94 | 1022.4 |
| 20260901205536 | 59 | 199 | 0.0 | 0.0 | 0.00 | 0.00 | 0.00 | 94 | 1022.4 |
| 20260901205035 | 59 | 199 | 0.0 | 0.0 | 0.00 | 0.00 | 0.00 | 93 | 1022.5 |
| 20260901204536 | 59 | 198 | 0.0 | 0.0 | 0.00 | 0.00 | 0.00 | 93 | 1022.7 |
| 20260901204035 | 60 | 199 | 0.0 | 0.0 | 0.00 | 0.00 | 0.00 | 92 | 1022.8 |
| 20260901203536 | 60 | 198 | 0.0 | 0.0 | 0.00 | 0.00 | 0.00 | 92 | 1022.7 |
| 20260901203036 | 60 | 199 | 0.0 | 0.0 | 0.00 | 0.00 | 0.00 | 91 | 1022.6 |
| 20260901202529 | 60 | 203 | 0.0 | 0.0 | 0.00 | 0.00 | 0.00 | 91 | 1022.7 |
| 20260901202035 | 60 | 0 | 0.0 | 0.0 | 0.00 | 0.00 | 0.00 | 91 | 1022.7 |
| 20260901201535 | 60 | 0 | 0.0 | 0.0 | 0.00 | 0.00 | 0.00 | 90 | 1022.8 |
| 20260901201029 | 60 | 0 | 0.0 | 0.0 | 0.00 | 0.00 | 0.00 | 90 | 1022.7 |
| 20260901200535 | 60 | 0 | 0.0 | 0.0 | 0.00 | 0.00 | 0.00 | 89 | 1022.7 |
| 20260901200034 | 60 | 0 | 0.0 | 0.0 | 0.00 | 0.00 | 0.00 | 88 | 1022.6 |
| 20260901195528 | 61 | 0 | 0.0 | 0.0 | 0.00 | 0.00 | 0.00 | 87 | 1022.7 |
| 20260901195036 | 61 | 0 | 0.0 | 0.0 | 0.00 | 0.00 | 0.00 | 87 | 1022.6 |
| 20260901194535 | 61 | 0 | 0.0 | 0.0 | 0.00 | 0.00 | 0.00 | 86 | 1022.6 |
| 20260901194029 | 61 | 0 | 0.0 | 0.0 | 0.00 | 0.00 | 0.00 | 85 | 1022.7 |
| 20260901193534 | 61 | 0 | 0.0 | 0.0 | 0.00 | 0.00 | 0.00 | 85 | 1022.6 |
| 20260901193036 | 62 | 0 | 0.0 | 0.0 | 0.00 | 0.00 | 0.00 | 84 | 1022.5 |
| 20260901192530 | 62 | 0 | 0.0 | 0.0 | 0.00 | 0.00 | 0.00 | 83 | 1022.5 |
| 20260901192036 | 62 | 0 | 0.0 | 0.0 | 0.00 | 0.00 | 0.00 | 82 | 1022.5 |
| 20260901191535 | 62 | 0 | 0.0 | 0.0 | 0.00 | 0.00 | 0.00 | 81 | 1022.5 |
| 20260901191036 | 62 | 0 | 0.0 | 0.0 | 0.00 | 0.00 | 0.00 | 80 | 1022.5 |
| 20260901190535 | 63 | 0 | 0.0 | 0.0 | 0.00 | 0.00 | 0.00 | 79 | 1022.5 |
| 20260901190036 | 63 | 0 | 0.0 | 0.0 | 0.00 | 0.00 | 0.00 | 78 | 1022.4 |
| 20260901185535 | 63 | 0 | 0.0 | 0.0 | 0.00 | 0.00 | 0.00 | 77 | 1022.3 |
| 20260901185037 | 63 | 0 | 0.0 | 2.0 | 0.00 | 0.00 | 0.00 | 75 | 1022.3 |
| 20260901184536 | 63 | 14 | 2.0 | 4.0 | 0.00 | 0.00 | 0.00 | 74 | 1022.3 |
| 20260901184035 | 64 | 6 | 3.0 | 6.0 | 0.00 | 0.00 | 0.00 | 72 | 1022.3 |
| 20260901183536 | 64 | 359 | 4.0 | 6.0 | 0.00 | 0.00 | 0.00 | 71 | 1022.1 |
| 20260901183036 | 64 | 252 | 0.0 | 0.0 | 0.00 | 0.00 | 0.00 | 70 | 1021.9 |
| 20260901182535 | 65 | 252 | 0.0 | 2.0 | 0.00 | 0.00 | 0.00 | 69 | 1022.0 |
| 20260901182035 | 65 | 252 | 0.0 | 2.0 | 0.00 | 0.00 | 0.00 | 68 | 1022.0 |
| 20260901181535 | 66 | 252 | 0.0 | 2.0 | 0.00 | 0.00 | 0.00 | 65 | 1021.8 |
| 20260901181035 | 66 | 252 | 0.0 | 2.0 | 0.00 | 0.00 | 0.00 | 64 | 1021.7 |
| 20260901180535 | 67 | 252 | 0.0 | 0.0 | 0.00 | 0.00 | 0.00 | 63 | 1021.9 |
| 20260901180035 | 67 | 252 | 1.0 | 4.0 | 0.00 | 0.00 | 0.00 | 61 | 1021.9 |
| 20260901175536 | 68 | 253 | 4.0 | 6.0 | 0.00 | 0.00 | 0.00 | 59 | 1021.8 |
| 20260901175035 | 68 | 278 | 0.0 | 2.0 | 0.00 | 0.00 | 0.00 | 59 | 1021.8 |
| 20260901174536 | 69 | 278 | 4.0 | 6.0 | 0.00 | 0.00 | 0.00 | 57 | 1021.8 |
| 20260901174035 | 69 | 284 | 4.0 | 6.0 | 0.00 | 0.00 | 0.00 | 56 | 1022.0 |
| 20260901173535 | 70 | 254 | 6.0 | 10.0 | 0.00 | 0.00 | 0.00 | 55 | 1022.0 |
| 20260901173039 | 71 | 284 | 8.0 | 12.0 | 0.00 | 0.00 | 0.00 | 53 | 1022.0 |
| 20260901172535 | 72 | 267 | 4.0 | 8.0 | 0.00 | 0.00 | 0.00 | 52 | 1022.0 |
| 20260901172035 | 72 | 285 | 4.0 | 8.0 | 0.00 | 0.00 | 0.00 | 52 | 1021.9 |
| 20260901171536 | 71 | 279 | 9.0 | 14.0 | 0.00 | 0.00 | 0.00 | 52 | 1021.9 |
| 20260901171036 | 72 | 300 | 8.0 | 12.0 | 0.00 | 0.00 | 0.00 | 52 | 1022.0 |
| 20260901170535 | 72 | 270 | 7.0 | 10.0 | 0.00 | 0.00 | 0.00 | 51 | 1021.9 |
| 20260901170035 | 73 | 315 | 7.0 | 14.0 | 0.00 | 0.00 | 0.00 | 51 | 1022.0 |
| 20260901165535 | 73 | 278 | 9.0 | 18.0 | 0.00 | 0.00 | 0.00 | 51 | 1022.0 |
| 20260901165035 | 73 | 293 | 9.0 | 16.0 | 0.00 | 0.00 | 0.00 | 51 | 1022.0 |
| 20260901164535 | 73 | 296 | 5.0 | 8.0 | 0.00 | 0.00 | 0.00 | 52 | 1022.0 |
| 20260901164036 | 73 | 288 | 10.0 | 20.0 | 0.00 | 0.00 | 0.00 | 53 | 1022.0 |
| 20260901163535 | 72 | 275 | 4.0 | 12.0 | 0.00 | 0.00 | 0.00 | 55 | 1021.9 |
| 20260901163036 | 72 | 272 | 7.0 | 10.0 | 0.00 | 0.00 | 0.00 | 55 | 1022.0 |
| 20260901162536 | 73 | 277 | 8.0 | 12.0 | 0.00 | 0.00 | 0.00 | 55 | 1022.0 |
| 20260901162036 | 72 | 289 | 4.0 | 8.0 | 0.00 | 0.00 | 0.00 | 56 | 1022.0 |
| 20260901161535 | 72 | 280 | 8.0 | 10.0 | 0.00 | 0.00 | 0.00 | 56 | 1021.9 |
| 20260901161035 | 73 | 293 | 8.0 | 16.0 | 0.00 | 0.00 | 0.00 | 55 | 1021.9 |
| 20260901160536 | 73 | 313 | 5.0 | 10.0 | 0.00 | 0.00 | 0.00 | 54 | 1021.9 |
| 20260901160033 | 74 | 292 | 7.0 | 12.0 | 0.00 | 0.00 | 0.00 | 55 | 1021.9 |
| 20260901155535 | 73 | 262 | 9.0 | 14.0 | 0.00 | 0.00 | 0.00 | 55 | 1021.9 |
| 20260901155035 | 73 | 274 | 5.0 | 8.0 | 0.00 | 0.00 | 0.00 | 56 | 1021.9 |
| 20260901154528 | 73 | 292 | 6.0 | 12.0 | 0.00 | 0.00 | 0.00 | 57 | 1021.9 |
| 20260901154036 | 73 | 316 | 2.0 | 4.0 | 0.00 | 0.00 | 0.00 | 56 | 1021.9 |
| 20260901153536 | 73 | 305 | 2.0 | 6.0 | 0.00 | 0.00 | 0.00 | 56 | 1022.0 |
| 20260901153030 | 74 | 311 | 6.0 | 10.0 | 0.00 | 0.00 | 0.00 | 54 | 1022.0 |
| 20260901152536 | 74 | 278 | 6.0 | 10.0 | 0.00 | 0.00 | 0.00 | 55 | 1022.0 |
| 20260901152036 | 74 | 293 | 5.0 | 8.0 | 0.00 | 0.00 | 0.00 | 54 | 1022.0 |
| 20260901151532 | 75 | 279 | 9.0 | 12.0 | 0.00 | 0.00 | 0.00 | 53 | 1022.0 |
| 20260901151035 | 75 | 267 | 8.0 | 12.0 | 0.00 | 0.00 | 0.00 | 55 | 1022.0 |
| 20260901150535 | 75 | 283 | 6.0 | 14.0 | 0.00 | 0.00 | 0.00 | 55 | 1022.0 |
| 20260901150029 | 76 | 308 | 5.0 | 8.0 | 0.00 | 0.00 | 0.00 | 55 | 1022.0 |
| 20260901145535 | 77 | 262 | 7.0 | 12.0 | 0.00 | 0.00 | 0.00 | 56 | 1021.9 |
| 20260901145035 | 75 | 315 | 3.0 | 6.0 | 0.00 | 0.00 | 0.00 | 57 | 1021.9 |
| 20260901144536 | 74 | 330 | 5.0 | 10.0 | 0.00 | 0.00 | 0.00 | 59 | 1022.0 |
| 20260901144036 | 72 | 281 | 3.0 | 6.0 | 0.00 | 0.00 | 0.00 | 59 | 1022.0 |
| 20260901143535 | 73 | 271 | 6.0 | 10.0 | 0.00 | 0.00 | 0.00 | 57 | 1022.0 |
| 20260901143036 | 76 | 219 | 4.0 | 8.0 | 0.00 | 0.00 | 0.00 | 56 | 1022.0 |
| 20260901142535 | 76 | 263 | 9.0 | 14.0 | 0.00 | 0.00 | 0.00 | 58 | 1022.0 |
| 20260901142036 | 75 | 302 | 5.0 | 10.0 | 0.00 | 0.00 | 0.00 | 58 | 1022.1 |
| 20260901141535 | 75 | 278 | 7.0 | 10.0 | 0.00 | 0.00 | 0.00 | 58 | 1022.1 |
| 20260901141036 | 74 | 257 | 6.0 | 14.0 | 0.00 | 0.00 | 0.00 | 58 | 1022.1 |
| 20260901140535 | 74 | 290 | 10.0 | 22.0 | 0.00 | 0.00 | 0.00 | 60 | 1022.1 |
| 20260901140035 | 73 | 303 | 7.0 | 14.0 | 0.00 | 0.00 | 0.00 | 61 | 1022.2 |
| 20260901135535 | 72 | 345 | 7.0 | 12.0 | 0.00 | 0.00 | 0.00 | 61 | 1022.2 |
| 20260901135036 | 73 | 323 | 6.0 | 10.0 | 0.00 | 0.00 | 0.00 | 61 | 1022.3 |
| 20260901134536 | 73 | 272 | 7.0 | 12.0 | 0.00 | 0.00 | 0.00 | 61 | 1022.2 |
| 20260901134035 | 73 | 259 | 8.0 | 12.0 | 0.00 | 0.00 | 0.00 | 61 | 1022.2 |
| 20260901133536 | 72 | 266 | 8.0 | 12.0 | 0.00 | 0.00 | 0.00 | 62 | 1022.2 |
| 20260901133036 | 73 | 306 | 5.0 | 10.0 | 0.00 | 0.00 | 0.00 | 62 | 1022.2 |
| 20260901132536 | 72 | 274 | 3.0 | 6.0 | 0.00 | 0.00 | 0.00 | 61 | 1022.2 |
| 20260901132035 | 72 | 308 | 4.0 | 8.0 | 0.00 | 0.00 | 0.00 | 61 | 1022.3 |
| 20260901131536 | 73 | 273 | 10.0 | 14.0 | 0.00 | 0.00 | 0.00 | 60 | 1022.2 |
| 20260901131036 | 74 | 343 | 6.0 | 8.0 | 0.00 | 0.00 | 0.00 | 59 | 1022.1 |
| 20260901130535 | 75 | 310 | 3.0 | 6.0 | 0.00 | 0.00 | 0.00 | 60 | 1022.2 |
| 20260901130036 | 74 | 324 | 2.0 | 4.0 | 0.00 | 0.02 | 0.00 | 59 | 1022.2 |
| 20260901125535 | 74 | 302 | 6.0 | 10.0 | 0.00 | 0.03 | 0.00 | 60 | 1022.2 |
| 20260901125036 | 74 | 265 | 10.0 | 14.0 | 0.00 | 0.03 | 0.00 | 61 | 1022.2 |
| 20260901124535 | 73 | 272 | 8.0 | 12.0 | 0.00 | 0.03 | 0.00 | 62 | 1022.2 |
| 20260901124036 | 73 | 306 | 6.0 | 16.0 | 0.00 | 0.03 | 0.00 | 62 | 1022.3 |
| 20260901123536 | 73 | 295 | 6.0 | 12.0 | 0.00 | 0.03 | 0.00 | 62 | 1022.3 |
| 20260901123036 | 73 | 299 | 7.0 | 12.0 | 0.00 | 0.03 | 0.00 | 62 | 1022.3 |
| 20260901122536 | 73 | 326 | 7.0 | 14.0 | 0.00 | 0.03 | 0.00 | 63 | 1022.3 |
| 20260901122034 | 71 | 320 | 2.0 | 6.0 | 0.00 | 0.03 | 0.00 | 64 | 1022.3 |
| 20260901121529 | 71 | 301 | 5.0 | 10.0 | 0.00 | 0.03 | 0.00 | 64 | 1022.3 |
| 20260901121035 | 71 | 275 | 9.0 | 14.0 | 0.00 | 0.03 | 0.00 | 63 | 1022.3 |
| 20260901120529 | 71 | 299 | 9.0 | 16.0 | 0.00 | 0.03 | 0.00 | 63 | 1022.3 |
| 20260901120035 | 72 | 270 | 13.0 | 18.0 | 0.00 | 0.03 | 0.00 | 62 | 1022.2 |
| 20260901115535 | 72 | 313 | 6.0 | 12.0 | 0.00 | 0.03 | 0.00 | 61 | 1022.2 |
| 20260901115028 | 73 | 280 | 8.0 | 12.0 | 0.00 | 0.03 | 0.00 | 61 | 1022.2 |
| 20260901114535 | 72 | 288 | 11.0 | 16.0 | 0.00 | 0.03 | 0.00 | 62 | 1022.2 |
| 20260901114035 | 73 | 285 | 10.0 | 18.0 | 0.00 | 0.03 | 0.00 | 62 | 1022.2 |
| 20260901113529 | 73 | 277 | 10.0 | 16.0 | 0.00 | 0.03 | 0.00 | 63 | 1022.2 |
| 20260901113035 | 72 | 233 | 5.0 | 10.0 | 0.00 | 0.03 | 0.00 | 65 | 1022.2 |
| 20260901112535 | 70 | 279 | 8.0 | 12.0 | 0.00 | 0.03 | 0.00 | 65 | 1022.2 |
| 20260901112029 | 70 | 259 | 7.0 | 10.0 | 0.00 | 0.03 | 0.00 | 65 | 1022.2 |
| 20260901111535 | 71 | 335 | 8.0 | 14.0 | 0.00 | 0.03 | 0.00 | 64 | 1022.3 |
| 20260901111036 | 71 | 286 | 5.0 | 8.0 | 0.00 | 0.03 | 0.00 | 63 | 1022.3 |
| 20260901110531 | 72 | 339 | 8.0 | 18.0 | 0.00 | 0.03 | 0.00 | 63 | 1022.3 |
| 20260901110039 | 73 | 339 | 11.0 | 20.0 | 0.00 | 0.03 | 0.00 | 62 | 1022.3 |
| 20260901105535 | 74 | 308 | 7.0 | 14.0 | 0.00 | 0.03 | 0.00 | 63 | 1022.3 |
| 20260901105036 | 73 | 273 | 12.0 | 22.0 | 0.00 | 0.03 | 0.00 | 61 | 1022.2 |
| 20260901104536 | 73 | 255 | 7.0 | 14.0 | 0.00 | 0.03 | 0.00 | 62 | 1022.1 |
| 20260901104039 | 73 | 288 | 8.0 | 12.0 | 0.00 | 0.03 | 0.00 | 64 | 1022.2 |
| 20260901103535 | 73 | 270 | 13.0 | 18.0 | 0.00 | 0.03 | 0.00 | 67 | 1022.2 |
| 20260901103040 | 72 | 317 | 7.0 | 10.0 | 0.00 | 0.03 | 0.00 | 68 | 1022.2 |
| 20260901102535 | 72 | 278 | 7.0 | 10.0 | 0.00 | 0.03 | 0.00 | 69 | 1022.1 |
| 20260901102035 | 71 | 273 | 15.0 | 20.0 | 0.00 | 0.03 | 0.00 | 70 | 1022.1 |
| 20260901101535 | 71 | 288 | 10.0 | 18.0 | 0.00 | 0.03 | 0.00 | 73 | 1022.1 |
| 20260901101036 | 70 | 276 | 10.0 | 14.0 | 0.00 | 0.03 | 0.00 | 74 | 1022.1 |
| 20260901100535 | 70 | 317 | 6.0 | 10.0 | 0.00 | 0.03 | 0.00 | 75 | 1022.1 |
| 20260901100036 | 70 | 349 | 7.0 | 14.0 | 0.00 | 0.03 | 0.00 | 76 | 1022.1 |
| 20260901095535 | 71 | 302 | 9.0 | 14.0 | 0.00 | 0.03 | 0.00 | 76 | 1022.1 |
| 20260901095035 | 71 | 311 | 5.0 | 8.0 | 0.00 | 0.03 | 0.00 | 77 | 1022.2 |
| 20260901094535 | 70 | 278 | 8.0 | 10.0 | 0.00 | 0.03 | 0.00 | 77 | 1022.4 |
| 20260901094036 | 70 | 287 | 5.0 | 16.0 | 0.00 | 0.03 | 0.00 | 80 | 1022.4 |
| 20260901093536 | 68 | 272 | 3.0 | 6.0 | 0.00 | 0.03 | 0.00 | 82 | 1022.4 |
| 20260901093045 | 67 | 312 | 1.0 | 4.0 | 0.00 | 0.03 | 0.00 | 82 | 1022.4 |
| 20260901092536 | 67 | 339 | 2.0 | 4.0 | 0.00 | 0.03 | 0.00 | 82 | 1022.3 |
| 20260901092035 | 69 | 318 | 9.0 | 14.0 | 0.00 | 0.03 | 0.00 | 82 | 1022.3 |
| 20260901091535 | 70 | 294 | 5.0 | 8.0 | 0.00 | 0.03 | 0.00 | 83 | 1022.2 |
| 20260901091036 | 69 | 330 | 4.0 | 6.0 | 0.00 | 0.03 | 0.00 | 85 | 1022.1 |
| 20260901090536 | 68 | 279 | 7.0 | 10.0 | 0.00 | 0.03 | 0.00 | 86 | 1022.1 |
| 20260901090036 | 69 | 271 | 5.0 | 8.0 | 0.00 | 0.03 | 0.00 | 88 | 1022.1 |
| 20260901085535 | 69 | 284 | 4.0 | 8.0 | 0.00 | 0.03 | 0.00 | 90 | 1022.1 |
| 20260901085035 | 68 | 257 | 5.0 | 10.0 | 0.00 | 0.04 | 0.00 | 92 | 1022.1 |
| 20260901084536 | 68 | 281 | 4.0 | 6.0 | 0.00 | 0.05 | 0.00 | 93 | 1022.1 |
| 20260901084035 | 68 | 250 | 4.0 | 6.0 | 0.00 | 0.06 | 0.00 | 95 | 1022.0 |
| 20260901083536 | 67 | 301 | 5.0 | 8.0 | 0.00 | 0.12 | 0.00 | 97 | 1022.0 |
| 20260901083040 | 66 | 259 | 5.0 | 8.0 | 0.00 | 0.14 | 0.00 | 99 | 1022.0 |
| 20260901082536 | 66 | 257 | 7.0 | 10.0 | 0.00 | 0.14 | 0.00 | 100 | 1021.9 |
| 20260901082031 | 66 | 290 | 2.0 | 4.0 | 0.00 | 0.15 | 0.00 | 100 | 1021.9 |
| 20260901081535 | 66 | 294 | 4.0 | 8.0 | 0.00 | 0.18 | 0.00 | 100 | 1021.8 |
| 20260901081036 | 66 | 261 | 2.0 | 6.0 | 0.00 | 0.18 | 0.00 | 100 | 1021.8 |
| 20260901080535 | 65 | 295 | 4.0 | 10.0 | 0.00 | 0.18 | 0.00 | 100 | 1021.8 |
| 20260901080035 | 65 | 266 | 4.0 | 6.0 | 0.00 | 0.18 | 0.00 | 100 | 1021.7 |
| 20260901075529 | 64 | 271 | 3.0 | 10.0 | 0.00 | 0.18 | 0.00 | 100 | 1021.6 |
| 20260901075035 | 64 | 273 | 6.0 | 10.0 | 0.00 | 0.18 | 0.00 | 100 | 1021.6 |
| 20260901074535 | 64 | 224 | 2.0 | 4.0 | 0.00 | 0.18 | 0.00 | 100 | 1021.4 |
| 20260901074038 | 64 | 227 | 5.0 | 8.0 | 0.00 | 0.18 | 0.00 | 100 | 1021.4 |
| 20260901073535 | 64 | 258 | 6.0 | 8.0 | 0.00 | 0.18 | 0.00 | 100 | 1021.5 |
| 20260901073039 | 64 | 267 | 6.0 | 10.0 | 0.00 | 0.18 | 0.00 | 100 | 1021.4 |
| 20260901072535 | 64 | 256 | 1.0 | 4.0 | 0.00 | 0.18 | 0.00 | 100 | 1021.4 |
| 20260901072035 | 63 | 249 | 4.0 | 8.0 | 0.00 | 0.18 | 0.00 | 100 | 1021.5 |
| 20260901071535 | 62 | 227 | 3.0 | 10.0 | 0.00 | 0.18 | 0.00 | 100 | 1021.4 |
| 20260901071028 | 62 | 238 | 5.0 | 8.0 | 0.00 | 0.18 | 0.00 | 100 | 1021.3 |
| 20260901070535 | 62 | 194 | 1.0 | 4.0 | 0.00 | 0.18 | 0.00 | 100 | 1021.3 |
| 20260901070035 | 62 | 208 | 4.0 | 6.0 | 0.00 | 0.18 | 0.00 | 100 | 1021.3 |
| 20260901065528 | 62 | 251 | 5.0 | 8.0 | 0.00 | 0.18 | 0.00 | 100 | 1021.2 |
| 20260901065035 | 61 | 272 | 0.0 | 4.0 | 0.00 | 0.18 | 0.00 | 100 | 1021.2 |
| 20260901064535 | 61 | 206 | 4.0 | 8.0 | 0.00 | 0.18 | 0.00 | 100 | 1021.1 |
| 20260901064028 | 61 | 232 | 3.0 | 8.0 | 0.00 | 0.18 | 0.00 | 100 | 1021.0 |
| 20260901063535 | 61 | 218 | 4.0 | 8.0 | 0.00 | 0.18 | 0.00 | 100 | 1021.0 |
| 20260901063035 | 60 | 215 | 0.0 | 0.0 | 0.00 | 0.18 | 0.00 | 100 | 1021.0 |
| 20260901062531 | 60 | 215 | 2.0 | 6.0 | 0.00 | 0.18 | 0.00 | 100 | 1020.9 |
| 20260901062035 | 60 | 232 | 2.0 | 6.0 | 0.00 | 0.18 | 0.00 | 100 | 1020.9 |
| 20260901061535 | 60 | 217 | 4.0 | 6.0 | 0.00 | 0.18 | 0.00 | 100 | 1020.9 |
| 20260901061028 | 60 | 201 | 1.0 | 4.0 | 0.00 | 0.19 | 0.00 | 100 | 1020.9 |
| 20260901060535 | 60 | 201 | 2.0 | 6.0 | 0.00 | 0.21 | 0.00 | 100 | 1020.8 |
| 20260901060034 | 60 | 241 | 2.0 | 4.0 | 0.00 | 0.22 | 0.00 | 100 | 1020.7 |
| 20260901055534 | 60 | 241 | 5.0 | 8.0 | 0.00 | 0.25 | 0.00 | 100 | 1020.7 |
| 20260901055031 | 60 | 241 | 3.0 | 8.0 | 0.00 | 0.26 | 0.00 | 100 | 1020.7 |
| 20260901054535 | 60 | 241 | 3.0 | 8.0 | 0.00 | 0.27 | 0.00 | 100 | 1020.6 |
| 20260901054035 | 60 | 241 | 0.0 | 4.0 | 0.00 | 0.27 | 0.00 | 100 | 1020.5 |
| 20260901053535 | 60 | 241 | 1.0 | 4.0 | 0.00 | 0.27 | 0.00 | 100 | 1020.4 |
| 20260901053035 | 60 | 241 | 1.0 | 4.0 | 0.00 | 0.27 | 0.00 | 100 | 1020.4 |
| 20260901052535 | 60 | 241 | 2.0 | 4.0 | 0.00 | 0.27 | 0.00 | 100 | 1020.4 |
| 20260901052035 | 60 | 248 | 4.0 | 8.0 | 0.00 | 0.27 | 0.00 | 100 | 1020.4 |
| 20260901051535 | 60 | 219 | 0.0 | 2.0 | 0.00 | 0.27 | 0.00 | 100 | 1020.4 |
| 20260901051035 | 60 | 219 | 3.0 | 6.0 | 0.00 | 0.27 | 0.00 | 100 | 1020.4 |
| 20260901050534 | 60 | 262 | 2.0 | 8.0 | 0.00 | 0.27 | 0.00 | 100 | 1020.4 |
| 20260901050028 | 60 | 247 | 2.0 | 4.0 | 0.00 | 0.27 | 0.00 | 100 | 1020.3 |
| 20260901045533 | 60 | 248 | 4.0 | 8.0 | 0.00 | 0.27 | 0.00 | 100 | 1020.3 |
| 20260901045034 | 60 | 219 | 2.0 | 6.0 | 0.00 | 0.27 | 0.00 | 100 | 1020.3 |
| 20260901044534 | 60 | 232 | 1.0 | 4.0 | 0.00 | 0.27 | 0.00 | 100 | 1020.3 |
| 20260901044033 | 60 | 208 | 3.0 | 8.0 | 0.00 | 0.27 | 0.00 | 100 | 1020.2 |
| 20260901043533 | 60 | 224 | 5.0 | 8.0 | 0.00 | 0.27 | 0.00 | 100 | 1020.2 |
| 20260901043034 | 60 | 237 | 3.0 | 6.0 | 0.00 | 0.27 | 0.00 | 100 | 1020.1 |
| 20260901042533 | 60 | 225 | 5.0 | 10.0 | 0.00 | 0.27 | 0.00 | 100 | 1020.1 |
| 20260901042032 | 60 | 217 | 2.0 | 6.0 | 0.00 | 0.27 | 0.00 | 100 | 1020.0 |
| 20260901041537 | 60 | 249 | 2.0 | 6.0 | 0.00 | 0.27 | 0.00 | 100 | 1020.0 |
| 20260901041033 | 60 | 246 | 4.0 | 6.0 | 0.00 | 0.27 | 0.00 | 100 | 1020.0 |
| 20260901040533 | 60 | 256 | 1.0 | 6.0 | 0.00 | 0.27 | 0.00 | 100 | 1019.9 |
| 20260901040033 | 60 | 223 | 3.0 | 6.0 | 0.00 | 0.27 | 0.00 | 100 | 1019.8 |
| 20260901035533 | 60 | 215 | 0.0 | 4.0 | 0.00 | 0.27 | 0.00 | 100 | 1019.7 |
| 20260901035033 | 60 | 215 | 2.0 | 4.0 | 0.00 | 0.27 | 0.00 | 100 | 1019.7 |
| 20260901034533 | 60 | 237 | 2.0 | 4.0 | 0.00 | 0.27 | 0.00 | 100 | 1019.6 |
| 20260901034033 | 60 | 217 | 6.0 | 10.0 | 0.00 | 0.27 | 0.00 | 100 | 1019.6 |
| 20260901033533 | 60 | 200 | 4.0 | 8.0 | 0.00 | 0.27 | 0.00 | 100 | 1019.7 |
| 20260901033034 | 60 | 223 | 3.0 | 6.0 | 0.00 | 0.27 | 0.00 | 100 | 1019.7 |
| 20260901032533 | 60 | 224 | 2.0 | 6.0 | 0.00 | 0.27 | 0.00 | 100 | 1019.7 |
| 20260901032033 | 60 | 224 | 2.0 | 6.0 | 0.00 | 0.27 | 0.00 | 100 | 1019.7 |
| 20260901031533 | 60 | 224 | 1.0 | 4.0 | 0.00 | 0.27 | 0.00 | 100 | 1019.7 |
| 20260901031033 | 60 | 224 | 1.0 | 6.0 | 0.00 | 0.27 | 0.00 | 100 | 1019.7 |
| 20260901030533 | 60 | 224 | 3.0 | 6.0 | 0.00 | 0.27 | 0.00 | 100 | 1019.7 |
| 20260901030034 | 60 | 224 | 3.0 | 6.0 | 0.00 | 0.27 | 0.00 | 100 | 1019.7 |
| 20260901025533 | 60 | 224 | 5.0 | 8.0 | 0.00 | 0.27 | 0.00 | 100 | 1019.7 |
| 20260901025029 | 60 | 224 | 3.0 | 8.0 | 0.00 | 0.27 | 0.00 | 100 | 1019.8 |
| 20260901024527 | 60 | 224 | 5.0 | 8.0 | 0.00 | 0.27 | 0.00 | 100 | 1019.8 |
| 20260901024027 | 60 | 216 | 5.0 | 8.0 | 0.00 | 0.27 | 0.00 | 100 | 1019.8 |
| 20260901023534 | 60 | 212 | 4.0 | 6.0 | 0.00 | 0.27 | 0.00 | 100 | 1019.6 |
| 20260901023027 | 60 | 212 | 3.0 | 8.0 | 0.00 | 0.27 | 0.00 | 100 | 1019.6 |
| 20260901022533 | 60 | 219 | 5.0 | 8.0 | 0.00 | 0.27 | 0.00 | 100 | 1019.6 |
| 20260901022038 | 60 | 219 | 4.0 | 6.0 | 0.00 | 0.27 | 0.00 | 100 | 1019.6 |
| 20260901021526 | 60 | 219 | 5.0 | 8.0 | 0.00 | 0.27 | 0.00 | 100 | 1019.6 |
| 20260901021033 | 60 | 237 | 4.0 | 8.0 | 0.00 | 0.27 | 0.00 | 100 | 1019.6 |
| 20260901020534 | 60 | 216 | 3.0 | 6.0 | 0.00 | 0.27 | 0.00 | 100 | 1019.5 |
| 20260901020030 | 60 | 216 | 4.0 | 8.0 | 0.00 | 0.27 | 0.00 | 100 | 1019.5 |
| 20260901015529 | 60 | 237 | 2.0 | 6.0 | 0.00 | 0.27 | 0.00 | 100 | 1019.5 |
| 20260901015037 | 60 | 228 | 5.0 | 6.0 | 0.00 | 0.27 | 0.00 | 100 | 1019.5 |
| 20260901014533 | 60 | 195 | 4.0 | 6.0 | 0.00 | 0.27 | 0.00 | 100 | 1019.4 |
| 20260901014033 | 61 | 252 | 0.0 | 4.0 | 0.00 | 0.27 | 0.00 | 100 | 1019.4 |
| 20260901013533 | 61 | 237 | 6.0 | 10.0 | 0.00 | 0.27 | 0.00 | 100 | 1019.4 |
| 20260901013037 | 61 | 228 | 5.0 | 10.0 | 0.00 | 0.27 | 0.00 | 100 | 1019.4 |
| 20260901012533 | 61 | 213 | 6.0 | 10.0 | 0.00 | 0.27 | 0.00 | 100 | 1019.4 |
| 20260901012033 | 61 | 223 | 6.0 | 10.0 | 0.00 | 0.27 | 0.00 | 100 | 1019.4 |
| 20260901011533 | 61 | 218 | 3.0 | 6.0 | 0.00 | 0.27 | 0.00 | 100 | 1019.4 |
| 20260901011033 | 61 | 234 | 4.0 | 8.0 | 0.00 | 0.27 | 0.00 | 100 | 1019.4 |
| 20260901010533 | 61 | 224 | 5.0 | 10.0 | 0.00 | 0.27 | 0.00 | 100 | 1019.4 |
| 20260901010037 | 61 | 237 | 1.0 | 6.0 | 0.00 | 0.27 | 0.00 | 100 | 1019.5 |
| 20260901005536 | 61 | 215 | 2.0 | 6.0 | 0.00 | 0.27 | 0.00 | 100 | 1019.5 |
| 20260901005030 | 61 | 223 | 3.0 | 6.0 | 0.00 | 0.27 | 0.00 | 100 | 1019.4 |
| 20260901004537 | 61 | 234 | 5.0 | 8.0 | 0.00 | 0.27 | 0.00 | 100 | 1019.4 |
| 20260901004038 | 61 | 242 | 3.0 | 6.0 | 0.00 | 0.27 | 0.00 | 100 | 1019.4 |
| 20260901003527 | 61 | 217 | 2.0 | 6.0 | 0.00 | 0.27 | 0.00 | 100 | 1019.4 |
| 20260901003034 | 61 | 229 | 3.0 | 6.0 | 0.00 | 0.27 | 0.00 | 100 | 1019.4 |
| 20260901002537 | 61 | 217 | 4.0 | 10.0 | 0.00 | 0.27 | 0.00 | 100 | 1019.4 |
| 20260901002037 | 61 | 241 | 2.0 | 6.0 | 0.00 | 0.27 | 0.00 | 100 | 1019.5 |
| 20260901001538 | 61 | 229 | 2.0 | 6.0 | 0.00 | 0.27 | 0.00 | 100 | 1019.5 |
| 20260901001033 | 62 | 234 | 2.0 | 6.0 | 0.00 | 0.27 | 0.00 | 100 | 1019.5 |
| 20260901000537 | 62 | 212 | 4.0 | 8.0 | 0.00 | 0.27 | 0.00 | 100 | 1019.5 |
| 20260901000033 | 62 | 234 | 0.0 | 0.0 | 0.00 | 0.27 | 0.27 | 100 | 1019.5 |
| 20260831235535 | 62 | 212 | 3.0 | 6.0 | 0.00 | 0.27 | 0.27 | 100 | 1019.4 |
| 20260831235039 | 62 | 218 | 3.0 | 6.0 | 0.00 | 0.27 | 0.27 | 100 | 1019.4 |
| 20260831234532 | 62 | 271 | 2.0 | 6.0 | 0.00 | 0.27 | 0.27 | 100 | 1019.4 |
| 20260831234038 | 62 | 236 | 6.0 | 12.0 | 0.00 | 0.27 | 0.27 | 100 | 1019.4 |
| 20260831233531 | 62 | 227 | 5.0 | 8.0 | 0.00 | 0.27 | 0.27 | 100 | 1019.4 |
| 20260831233038 | 62 | 248 | 5.0 | 10.0 | 0.00 | 0.27 | 0.27 | 100 | 1019.4 |
| 20260831232528 | 63 | 249 | 3.0 | 8.0 | 0.00 | 0.27 | 0.27 | 100 | 1019.4 |
| 20260831232039 | 63 | 262 | 3.0 | 8.0 | 0.00 | 0.27 | 0.27 | 100 | 1019.4 |